Time;durP1;ratioP1;P1;durP2;ratioP2;P2;SDS_P1;SDS_P2;PMS_P1;PMS_P2;Temp;Humidity;BMP_temperature;BMP_pressure;BME280_temperature;BME280_humidity;BME280_pressure;Samples;Min_cycle;Max_cycle;Signal;HPM_P1;HPM_P2
2021/10/02 00:31:37;;;;;;;4.60;2.60;;;;;;;;;;5072624;28;20404;-53
2021/10/02 00:34:36;;;;;;;3.90;2.20;;;;;;;;;;5065558;28;20021;-57
2021/10/02 00:37:20;;;;;;;3.50;1.95;;;;;;;;;;5069707;28;20119;-55
2021/10/02 00:45:00;;;;;;;3.85;1.80;;;;;;;;;;5072270;28;20063;-54
2021/10/02 00:47:27;;;;;;;3.22;1.88;;;;;;;;;;5071643;28;20032;-55
2021/10/02 00:49:54;;;;;;;3.97;2.35;;;;;;;;;;5071829;28;20021;-54
2021/10/02 00:52:20;;;;;;;3.42;2.03;;;;;;;;;;5072185;28;20071;-53
2021/10/02 00:54:46;;;;;;;9.13;2.47;;;;;;;;;;5072509;28;20048;-52
2021/10/02 00:57:13;;;;;;;4.50;1.90;;;;;;;;;;5072275;28;20039;-57
2021/10/02 00:59:39;;;;;;;1.98;1.73;;;;;;;;;;5071638;28;20123;-57
2021/10/02 01:02:05;;;;;;;3.05;2.38;;;;;;;;;;5077217;28;20032;-58
2021/10/02 01:04:50;;;;;;;4.35;2.53;;;;;;;;;;5068668;28;20044;-58
2021/10/02 01:07:33;;;;;;;6.95;2.40;;;;;;;;;;5071735;28;20104;-59
2021/10/02 01:10:13;;;;;;;2.58;1.65;;;;;;;;;;5068695;28;20028;-59
2021/10/02 01:12:39;;;;;;;3.42;2.30;;;;;;;;;;5069930;28;20031;-59
2021/10/02 01:15:07;;;;;;;4.90;2.20;;;;;;;;;;5070296;28;20020;-58
2021/10/02 01:17:53;;;;;;;2.85;2.10;;;;;;;;;;5068973;28;20078;-58
2021/10/02 01:20:31;;;;;;;3.28;2.17;;;;;;;;;;5066915;28;20039;-59
2021/10/02 01:23:12;;;;;;;3.60;2.00;;;;;;;;;;5071156;28;20465;-59
2021/10/02 01:25:43;;;;;;;3.33;2.38;;;;;;;;;;5065198;28;20032;-59
2021/10/02 01:28:12;;;;;;;3.03;2.10;;;;;;;;;;5071658;28;20060;-59
2021/10/02 01:36:47;;;;;;;3.00;1.80;;;;;;;;;;5070580;28;20137;-58
2021/10/02 01:47:41;;;;;;;3.80;2.17;;;;;;;;;;5066834;28;20105;-59
2021/10/02 01:50:08;;;;;;;6.40;2.13;;;;;;;;;;5071169;28;20016;-58
2021/10/02 01:52:37;;;;;;;4.13;2.17;;;;;;;;;;5070967;28;20032;-57
2021/10/02 01:55:03;;;;;;;4.38;2.25;;;;;;;;;;5071961;28;20475;-57
2021/10/02 01:57:34;;;;;;;5.57;2.45;;;;;;;;;;5075607;28;20024;-57
2021/10/02 02:00:04;;;;;;;5.03;2.50;;;;;;;;;;5074130;28;20060;-59
2021/10/02 02:02:32;;;;;;;4.15;2.30;;;;;;;;;;5071945;28;20036;-59
2021/10/02 02:05:00;;;;;;;3.03;1.85;;;;;;;;;;5075253;28;20111;-59
2021/10/02 02:07:28;;;;;;;4.25;2.50;;;;;;;;;;5075385;28;20028;-59
2021/10/02 02:09:56;;;;;;;2.28;1.73;;;;;;;;;;5076618;28;20023;-57
2021/10/02 02:12:22;;;;;;;4.13;1.95;;;;;;;;;;5074709;28;20032;-57
2021/10/02 02:14:50;;;;;;;3.22;1.80;;;;;;;;;;5075539;28;20082;-57
2021/10/02 02:17:17;;;;;;;2.70;1.77;;;;;;;;;;5069687;28;20087;-57
2021/10/02 02:19:45;;;;;;;3.28;1.90;;;;;;;;;;5074106;28;20049;-56
2021/10/02 02:22:11;;;;;;;3.42;2.08;;;;;;;;;;5075028;28;20027;-58
2021/10/02 02:24:37;;;;;;;2.47;1.75;;;;;;;;;;5064928;28;20100;-58
2021/10/02 02:27:04;;;;;;;4.32;2.35;;;;;;;;;;5075030;28;20131;-57
2021/10/02 02:29:31;;;;;;;4.53;2.17;;;;;;;;;;5073605;28;20024;-57
2021/10/02 02:31:57;;;;;;;6.03;2.15;;;;;;;;;;5074702;28;20044;-56
2021/10/02 02:34:24;;;;;;;3.83;1.95;;;;;;;;;;5074475;28;20064;-58
2021/10/02 02:36:50;;;;;;;3.42;2.42;;;;;;;;;;5074714;28;20070;-59
2021/10/02 02:39:16;;;;;;;4.45;1.92;;;;;;;;;;5073865;28;20021;-59
2021/10/02 02:41:42;;;;;;;3.83;1.92;;;;;;;;;;5072094;28;20423;-59
2021/10/02 02:44:08;;;;;;;4.13;2.10;;;;;;;;;;5072289;28;20107;-59
2021/10/02 02:46:36;;;;;;;3.38;1.92;;;;;;;;;;5070717;28;20161;-59
2021/10/02 02:49:12;;;;;;;2.75;1.85;;;;;;;;;;5072090;28;20522;-58
2021/10/02 02:51:44;;;;;;;5.07;2.30;;;;;;;;;;5064630;28;20021;-58
2021/10/02 02:54:22;;;;;;;3.10;1.80;;;;;;;;;;5074292;28;20035;-59
2021/10/02 02:56:51;;;;;;;3.50;1.60;;;;;;;;;;5073130;28;20389;-57
2021/10/02 02:59:29;;;;;;;4.82;2.13;;;;;;;;;;5073594;28;20032;-60
2021/10/02 03:01:55;;;;;;;2.85;1.92;;;;;;;;;;5077577;28;20080;-59
2021/10/02 03:04:27;;;;;;;3.90;2.22;;;;;;;;;;5072462;28;20028;-58
2021/10/02 03:06:54;;;;;;;4.22;2.15;;;;;;;;;;5072010;28;20107;-57
2021/10/02 03:09:21;;;;;;;2.92;2.03;;;;;;;;;;5073547;28;20020;-57
2021/10/02 03:11:50;;;;;;;3.92;1.88;;;;;;;;;;5072914;28;20080;-58
2021/10/02 03:14:19;;;;;;;3.40;2.22;;;;;;;;;;5065620;28;20052;-57
2021/10/02 03:16:45;;;;;;;3.03;1.83;;;;;;;;;;5073508;28;20401;-58
2021/10/02 03:19:12;;;;;;;3.53;2.03;;;;;;;;;;5072471;28;20040;-57
2021/10/02 03:21:38;;;;;;;2.88;1.95;;;;;;;;;;5073033;28;20414;-57
2021/10/02 03:24:04;;;;;;;2.53;1.70;;;;;;;;;;5070657;28;20063;-59
2021/10/02 03:26:31;;;;;;;3.17;1.83;;;;;;;;;;5073474;28;20033;-58
2021/10/02 03:29:01;;;;;;;4.75;2.45;;;;;;;;;;5069852;28;20079;-58
2021/10/02 03:31:27;;;;;;;3.55;2.22;;;;;;;;;;5071209;28;20071;-58
2021/10/02 03:33:54;;;;;;;3.80;2.20;;;;;;;;;;5072276;28;20357;-58
2021/10/02 03:36:20;;;;;;;2.92;2.15;;;;;;;;;;5072118;28;20025;-57
2021/10/02 03:38:46;;;;;;;3.22;1.98;;;;;;;;;;5071122;28;20060;-59
2021/10/02 03:41:12;;;;;;;6.28;2.13;;;;;;;;;;5068884;28;20020;-57
2021/10/02 03:43:38;;;;;;;2.25;1.75;;;;;;;;;;5069510;28;20032;-59
2021/10/02 03:46:05;;;;;;;4.63;1.70;;;;;;;;;;5071880;28;20037;-59
2021/10/02 03:48:31;;;;;;;3.67;2.03;;;;;;;;;;5071342;28;20028;-58
2021/10/02 03:50:58;;;;;;;3.10;1.88;;;;;;;;;;5073459;28;20475;-56
2021/10/02 03:53:24;;;;;;;4.68;2.38;;;;;;;;;;5072637;28;20043;-59
2021/10/02 03:55:50;;;;;;;2.53;1.73;;;;;;;;;;5073366;28;20025;-58
2021/10/02 03:58:16;;;;;;;2.67;1.83;;;;;;;;;;5072449;28;20024;-58
2021/10/02 04:00:42;;;;;;;2.95;1.73;;;;;;;;;;5071660;28;20025;-59
2021/10/02 04:03:08;;;;;;;2.45;1.58;;;;;;;;;;5066874;28;20299;-58
2021/10/02 04:05:34;;;;;;;5.25;2.00;;;;;;;;;;5067111;28;20418;-58
2021/10/02 04:08:00;;;;;;;2.47;1.85;;;;;;;;;;5072107;28;20031;-59
2021/10/02 04:10:26;;;;;;;2.45;1.75;;;;;;;;;;5078371;28;20499;-59
2021/10/02 04:12:52;;;;;;;2.60;1.73;;;;;;;;;;5069839;28;21905;-58
2021/10/02 04:15:18;;;;;;;2.38;1.60;;;;;;;;;;5068063;28;20028;-59
2021/10/02 04:17:44;;;;;;;2.47;1.88;;;;;;;;;;5068624;28;20078;-59
2021/10/02 04:20:10;;;;;;;3.88;2.17;;;;;;;;;;5070536;28;20476;-57
2021/10/02 04:22:36;;;;;;;4.10;2.40;;;;;;;;;;5072169;28;20029;-58
2021/10/02 04:25:03;;;;;;;2.60;1.85;;;;;;;;;;5066072;28;20029;-58
2021/10/02 04:27:29;;;;;;;2.55;2.08;;;;;;;;;;5067239;28;20028;-59
2021/10/02 04:29:55;;;;;;;3.08;2.00;;;;;;;;;;5060759;28;20017;-57
2021/10/02 04:32:21;;;;;;;3.63;2.40;;;;;;;;;;5062277;28;20676;-59
2021/10/02 04:34:47;;;;;;;4.13;2.08;;;;;;;;;;5064221;28;20032;-59
2021/10/02 04:37:13;;;;;;;7.80;2.15;;;;;;;;;;5069443;28;20492;-57
2021/10/02 04:39:39;;;;;;;4.38;2.47;;;;;;;;;;5068534;28;20039;-59
2021/10/02 04:42:05;;;;;;;3.38;1.95;;;;;;;;;;5071764;28;20503;-59
2021/10/02 04:44:31;;;;;;;2.75;1.90;;;;;;;;;;5069229;28;20086;-58
2021/10/02 04:46:58;;;;;;;2.70;1.88;;;;;;;;;;5070304;28;20070;-58
2021/10/02 04:49:24;;;;;;;3.08;1.85;;;;;;;;;;5070257;28;20107;-57
2021/10/02 04:51:50;;;;;;;4.05;2.00;;;;;;;;;;5070600;28;20111;-57
2021/10/02 04:54:16;;;;;;;3.85;2.08;;;;;;;;;;5071874;28;20102;-58
2021/10/02 04:56:42;;;;;;;3.17;1.70;;;;;;;;;;5070970;28;20028;-56
2021/10/02 04:59:08;;;;;;;3.70;2.22;;;;;;;;;;5071331;28;20400;-59
2021/10/02 05:01:34;;;;;;;3.38;2.15;;;;;;;;;;5063616;28;20108;-55
2021/10/02 05:04:01;;;;;;;2.47;1.70;;;;;;;;;;5064332;28;20040;-58
2021/10/02 05:06:28;;;;;;;4.28;2.60;;;;;;;;;;5066650;28;20033;-59
2021/10/02 05:08:54;;;;;;;2.80;2.28;;;;;;;;;;5070924;28;20427;-59
2021/10/02 05:11:20;;;;;;;2.85;1.92;;;;;;;;;;5071513;28;20035;-59
2021/10/02 05:13:46;;;;;;;3.25;1.80;;;;;;;;;;5071832;28;20024;-59
2021/10/02 05:16:12;;;;;;;6.82;2.20;;;;;;;;;;5069124;28;20033;-57
2021/10/02 05:18:38;;;;;;;6.72;1.98;;;;;;;;;;5070897;28;20056;-59
2021/10/02 05:21:04;;;;;;;3.03;1.85;;;;;;;;;;5071651;28;20040;-59
2021/10/02 05:23:30;;;;;;;3.20;2.10;;;;;;;;;;5071700;28;20516;-56
2021/10/02 05:25:56;;;;;;;2.67;2.13;;;;;;;;;;5069018;28;20036;-58
2021/10/02 05:28:23;;;;;;;3.22;2.25;;;;;;;;;;5071387;28;20024;-58
2021/10/02 05:30:49;;;;;;;3.22;1.80;;;;;;;;;;5063648;28;20021;-58
2021/10/02 05:33:15;;;;;;;4.78;2.38;;;;;;;;;;5060564;28;20463;-57
2021/10/02 05:35:41;;;;;;;4.25;2.42;;;;;;;;;;5070188;28;20479;-59
2021/10/02 05:38:07;;;;;;;8.63;2.75;;;;;;;;;;5071137;28;20059;-58
2021/10/02 05:40:33;;;;;;;3.28;2.17;;;;;;;;;;5071362;28;20419;-57
2021/10/02 05:43:02;;;;;;;3.13;2.03;;;;;;;;;;5071275;28;20036;-59
2021/10/02 05:45:28;;;;;;;3.28;2.22;;;;;;;;;;5063722;28;20039;-57
2021/10/02 05:47:54;;;;;;;3.83;2.05;;;;;;;;;;5069558;28;20028;-58
2021/10/02 05:50:20;;;;;;;2.60;2.00;;;;;;;;;;5062290;28;20029;-59
2021/10/02 05:52:46;;;;;;;3.17;2.05;;;;;;;;;;5071520;28;20024;-57
2021/10/02 05:55:12;;;;;;;4.07;2.30;;;;;;;;;;5066995;28;20025;-59
2021/10/02 05:57:39;;;;;;;3.15;2.15;;;;;;;;;;5070599;28;20023;-57
2021/10/02 06:00:07;;;;;;;3.08;2.20;;;;;;;;;;5070851;28;20024;-59
2021/10/02 06:02:33;;;;;;;3.38;2.08;;;;;;;;;;5073135;28;20032;-58
2021/10/02 06:04:59;;;;;;;4.07;2.08;;;;;;;;;;5067684;28;20518;-59
2021/10/02 06:07:25;;;;;;;3.30;2.20;;;;;;;;;;5060084;28;20036;-58
2021/10/02 06:09:51;;;;;;;3.15;2.20;;;;;;;;;;5067613;28;20025;-59
2021/10/02 06:12:18;;;;;;;3.83;2.50;;;;;;;;;;5068488;28;20100;-59
2021/10/02 06:14:44;;;;;;;3.67;1.98;;;;;;;;;;5070353;28;20356;-59
2021/10/02 06:17:10;;;;;;;3.78;2.33;;;;;;;;;;5064885;28;20043;-59
2021/10/02 06:19:36;;;;;;;3.38;2.30;;;;;;;;;;5069183;28;20048;-59
2021/10/02 06:22:02;;;;;;;3.88;2.40;;;;;;;;;;5067761;28;20044;-58
2021/10/02 06:24:28;;;;;;;3.50;2.22;;;;;;;;;;5059650;28;20107;-57
2021/10/02 06:26:54;;;;;;;2.78;2.33;;;;;;;;;;5068321;28;20040;-57
2021/10/02 06:29:22;;;;;;;4.22;2.47;;;;;;;;;;5068306;28;20367;-57
2021/10/02 06:31:48;;;;;;;5.88;2.17;;;;;;;;;;5067160;28;20109;-58
2021/10/02 06:34:14;;;;;;;2.88;1.77;;;;;;;;;;5063737;28;20112;-56
2021/10/02 06:36:40;;;;;;;3.10;2.10;;;;;;;;;;5070172;28;20150;-59
2021/10/02 06:39:06;;;;;;;3.05;2.20;;;;;;;;;;5069443;28;20059;-59
2021/10/02 06:41:32;;;;;;;4.30;2.50;;;;;;;;;;5072298;28;20016;-59
2021/10/02 06:43:58;;;;;;;4.07;1.80;;;;;;;;;;5074704;28;20029;-59
2021/10/02 06:46:24;;;;;;;8.15;2.72;;;;;;;;;;5065646;28;20060;-56
2021/10/02 06:48:50;;;;;;;4.03;1.90;;;;;;;;;;5068276;28;20059;-59
2021/10/02 06:51:16;;;;;;;4.03;2.53;;;;;;;;;;5073547;28;20025;-59
2021/10/02 06:53:42;;;;;;;3.17;1.73;;;;;;;;;;5068320;28;20016;-58
2021/10/02 06:56:08;;;;;;;5.00;1.75;;;;;;;;;;5070054;28;20028;-57
2021/10/02 06:58:34;;;;;;;4.43;2.42;;;;;;;;;;5071661;28;20028;-59
2021/10/02 07:01:00;;;;;;;3.30;2.00;;;;;;;;;;5070911;28;20025;-58
2021/10/02 07:03:26;;;;;;;5.32;2.03;;;;;;;;;;5074506;28;20070;-57
2021/10/02 07:05:52;;;;;;;5.22;2.50;;;;;;;;;;5071960;28;20039;-57
2021/10/02 07:08:18;;;;;;;4.72;1.92;;;;;;;;;;5069492;28;20041;-57
2021/10/02 07:10:44;;;;;;;5.78;2.13;;;;;;;;;;5068293;28;20103;-59
2021/10/02 07:13:10;;;;;;;4.47;2.03;;;;;;;;;;5069007;28;20693;-58
2021/10/02 07:15:36;;;;;;;4.25;2.10;;;;;;;;;;5068932;28;20050;-58
2021/10/02 07:18:02;;;;;;;2.90;1.85;;;;;;;;;;5072569;28;20064;-59
2021/10/02 07:20:28;;;;;;;3.17;1.58;;;;;;;;;;5067766;28;20112;-57
2021/10/02 07:22:54;;;;;;;2.85;2.00;;;;;;;;;;5071118;28;20021;-59
2021/10/02 07:25:25;;;;;;;3.88;2.03;;;;;;;;;;5072055;28;20060;-58
2021/10/02 07:27:51;;;;;;;5.00;2.05;;;;;;;;;;5068265;28;20024;-59
2021/10/02 07:30:18;;;;;;;3.63;1.90;;;;;;;;;;5070038;28;20086;-58
2021/10/02 07:32:44;;;;;;;3.15;1.75;;;;;;;;;;5068289;28;20024;-58
2021/10/02 07:35:11;;;;;;;4.32;2.25;;;;;;;;;;5072636;28;20029;-59
2021/10/02 07:37:37;;;;;;;5.05;2.15;;;;;;;;;;5068706;28;20027;-59
2021/10/02 07:40:03;;;;;;;5.20;2.13;;;;;;;;;;5067870;28;20114;-56
2021/10/02 07:42:30;;;;;;;2.60;1.73;;;;;;;;;;5069674;28;20033;-58
2021/10/02 07:44:59;;;;;;;2.88;1.85;;;;;;;;;;5073634;28;20029;-59
2021/10/02 07:47:25;;;;;;;3.05;1.80;;;;;;;;;;5071837;28;20040;-57
2021/10/02 07:49:51;;;;;;;4.70;2.15;;;;;;;;;;5072973;28;20054;-58
2021/10/02 07:52:18;;;;;;;2.60;1.98;;;;;;;;;;5069170;28;20380;-57
2021/10/02 07:54:45;;;;;;;6.55;2.13;;;;;;;;;;5072732;28;20028;-57
2021/10/02 07:57:11;;;;;;;2.97;1.85;;;;;;;;;;5068467;28;20498;-56
2021/10/02 07:59:37;;;;;;;3.20;2.00;;;;;;;;;;5068768;28;20028;-59
2021/10/02 08:02:07;;;;;;;3.95;2.03;;;;;;;;;;5076706;28;20052;-59
2021/10/02 08:04:33;;;;;;;2.10;1.58;;;;;;;;;;5073347;28;20033;-59
2021/10/02 08:06:59;;;;;;;2.03;1.65;;;;;;;;;;5073212;28;20036;-58
2021/10/02 08:09:25;;;;;;;3.10;1.73;;;;;;;;;;5071749;28;20025;-59
2021/10/02 08:11:51;;;;;;;4.07;2.05;;;;;;;;;;5065185;28;20128;-58
2021/10/02 08:14:18;;;;;;;5.22;1.77;;;;;;;;;;5068130;28;20029;-58
2021/10/02 08:16:45;;;;;;;5.07;2.42;;;;;;;;;;5072621;28;20015;-58
2021/10/02 08:19:12;;;;;;;5.18;2.22;;;;;;;;;;5072191;28;20055;-57
2021/10/02 08:21:39;;;;;;;5.32;2.42;;;;;;;;;;5066453;28;20028;-55
2021/10/02 08:24:06;;;;;;;2.65;1.73;;;;;;;;;;5069835;28;20108;-57
2021/10/02 08:26:32;;;;;;;2.45;1.60;;;;;;;;;;5070661;28;20124;-59
2021/10/02 08:28:58;;;;;;;3.55;1.70;;;;;;;;;;5065929;28;20021;-59
2021/10/02 08:31:25;;;;;;;3.40;1.95;;;;;;;;;;5068157;28;20021;-58
2021/10/02 08:33:52;;;;;;;2.40;1.60;;;;;;;;;;5065493;28;20021;-58
2021/10/02 08:36:18;;;;;;;3.58;2.08;;;;;;;;;;5071760;28;20078;-59
2021/10/02 08:38:44;;;;;;;2.25;1.40;;;;;;;;;;5067163;28;20526;-59
2021/10/02 08:41:11;;;;;;;2.55;1.70;;;;;;;;;;5071108;28;20028;-57
2021/10/02 08:43:37;;;;;;;3.83;1.30;;;;;;;;;;5066901;28;20035;-58
2021/10/02 08:46:05;;;;;;;2.92;1.42;;;;;;;;;;5067692;28;20071;-58
2021/10/02 08:48:31;;;;;;;5.43;1.90;;;;;;;;;;5067328;28;20109;-56
2021/10/02 08:50:58;;;;;;;2.67;1.45;;;;;;;;;;5066642;28;20119;-56
2021/10/02 08:53:29;;;;;;;2.80;1.63;;;;;;;;;;5068616;28;20040;-57
2021/10/02 08:55:55;;;;;;;2.35;1.30;;;;;;;;;;5071102;28;20446;-59
2021/10/02 08:58:21;;;;;;;1.95;1.20;;;;;;;;;;5068050;28;20039;-53
2021/10/02 09:00:47;;;;;;;3.20;2.03;;;;;;;;;;5063468;28;20032;-56
2021/10/02 09:03:13;;;;;;;3.47;1.77;;;;;;;;;;5074800;28;20043;-59
2021/10/02 09:05:39;;;;;;;1.95;1.40;;;;;;;;;;5066628;28;20453;-58
2021/10/02 09:08:06;;;;;;;2.97;1.67;;;;;;;;;;5070114;28;20032;-57
2021/10/02 09:10:33;;;;;;;3.97;1.40;;;;;;;;;;5065459;28;20013;-58
2021/10/02 09:12:59;;;;;;;2.40;1.23;;;;;;;;;;5071770;28;20101;-59
2021/10/02 09:15:25;;;;;;;2.70;1.55;;;;;;;;;;5070559;28;20028;-56
2021/10/02 09:17:52;;;;;;;3.05;1.70;;;;;;;;;;5069436;28;20369;-59
2021/10/02 09:20:18;;;;;;;3.85;1.55;;;;;;;;;;5064879;28;20036;-59
2021/10/02 09:22:52;;;;;;;4.72;1.30;;;;;;;;;;5068960;28;20111;-58
2021/10/02 09:25:18;;;;;;;4.07;1.52;;;;;;;;;;5068858;28;20033;-54
2021/10/02 09:27:44;;;;;;;3.33;1.30;;;;;;;;;;5070037;28;20035;-58
2021/10/02 09:30:11;;;;;;;2.58;1.38;;;;;;;;;;5065944;28;20107;-59
2021/10/02 09:32:41;;;;;;;2.15;1.00;;;;;;;;;;5067554;28;20586;-59
2021/10/02 09:35:12;;;;;;;1.73;1.02;;;;;;;;;;5071181;28;20024;-58
2021/10/02 09:37:39;;;;;;;2.25;1.00;;;;;;;;;;5063319;28;20504;-57
2021/10/02 09:40:10;;;;;;;3.67;1.25;;;;;;;;;;5070724;28;20032;-56
2021/10/02 09:42:47;;;;;;;2.22;1.08;;;;;;;;;;5068077;28;20488;-58
2021/10/02 09:45:18;;;;;;;2.08;1.30;;;;;;;;;;5069946;28;20131;-57
2021/10/02 09:47:45;;;;;;;2.05;0.85;;;;;;;;;;5067352;28;20028;-58
2021/10/02 09:50:13;;;;;;;3.35;0.90;;;;;;;;;;5066494;28;20109;-59
2021/10/02 09:52:43;;;;;;;1.58;0.80;;;;;;;;;;5069108;28;20499;-57
2021/10/02 09:55:24;;;;;;;2.38;1.08;;;;;;;;;;5069535;28;20032;-57
2021/10/02 09:57:52;;;;;;;1.65;1.00;;;;;;;;;;5070206;28;21047;-59
2021/10/02 10:00:20;;;;;;;2.55;0.88;;;;;;;;;;5074070;28;20036;-58
2021/10/02 10:02:46;;;;;;;3.80;0.98;;;;;;;;;;5075914;28;20097;-59
2021/10/02 10:05:14;;;;;;;1.33;0.90;;;;;;;;;;5066757;28;20058;-58
2021/10/02 10:07:40;;;;;;;1.00;0.82;;;;;;;;;;5069972;28;20043;-57
2021/10/02 10:10:06;;;;;;;3.72;0.90;;;;;;;;;;5065864;28;20111;-59
2021/10/02 10:12:33;;;;;;;1.50;0.80;;;;;;;;;;5062930;28;20020;-57
2021/10/02 10:14:59;;;;;;;1.63;0.90;;;;;;;;;;5072656;28;20033;-57
2021/10/02 10:17:29;;;;;;;1.42;0.80;;;;;;;;;;5073326;28;20043;-56
2021/10/02 10:20:04;;;;;;;1.70;0.90;;;;;;;;;;5069327;28;20133;-59
2021/10/02 10:22:30;;;;;;;2.15;0.88;;;;;;;;;;5068479;28;20032;-55
2021/10/02 10:25:07;;;;;;;1.85;0.77;;;;;;;;;;5072014;28;20029;-58
2021/10/02 10:27:38;;;;;;;1.05;0.60;;;;;;;;;;5071848;28;20025;-57
2021/10/02 10:30:09;;;;;;;1.55;0.70;;;;;;;;;;5071148;28;20083;-56
2021/10/02 10:32:36;;;;;;;1.92;0.80;;;;;;;;;;5072400;28;20025;-59
2021/10/02 10:35:03;;;;;;;4.70;1.08;;;;;;;;;;5074943;28;20009;-59
2021/10/02 10:37:29;;;;;;;1.65;0.70;;;;;;;;;;5072275;28;20035;-58
2021/10/02 10:39:57;;;;;;;1.85;0.90;;;;;;;;;;5072236;28;20028;-59
2021/10/02 10:42:27;;;;;;;1.10;0.75;;;;;;;;;;5074973;28;20029;-57
2021/10/02 10:44:55;;;;;;;1.52;0.98;;;;;;;;;;5072810;28;20469;-56
2021/10/02 10:47:21;;;;;;;1.60;0.95;;;;;;;;;;5074373;28;20043;-57
2021/10/02 10:49:47;;;;;;;1.75;1.02;;;;;;;;;;5074214;28;20024;-58
2021/10/02 10:52:15;;;;;;;1.45;0.90;;;;;;;;;;5072347;28;20123;-57
2021/10/02 10:54:44;;;;;;;3.45;0.75;;;;;;;;;;5073926;28;20532;-58
2021/10/02 10:57:29;;;;;;;1.27;0.68;;;;;;;;;;5073659;28;20024;-52
2021/10/02 10:59:55;;;;;;;1.20;0.73;;;;;;;;;;5071565;28;20033;-56
2021/10/02 11:02:39;;;;;;;1.80;0.90;;;;;;;;;;5073702;28;20031;-58
2021/10/02 11:05:05;;;;;;;1.85;0.82;;;;;;;;;;5074134;28;20025;-58
2021/10/02 11:07:50;;;;;;;1.13;0.38;;;;;;;;;;5068265;28;20112;-56
2021/10/02 11:10:43;;;;;;;1.15;0.60;;;;;;;;;;5063019;28;20468;-57
2021/10/02 11:13:13;;;;;;;1.33;0.95;;;;;;;;;;5063932;28;20090;-57
2021/10/02 11:15:39;;;;;;;2.42;1.02;;;;;;;;;;5074460;28;20025;-58
2021/10/02 11:18:05;;;;;;;1.33;0.57;;;;;;;;;;5073903;28;20055;-56
2021/10/02 11:20:38;;;;;;;2.42;0.70;;;;;;;;;;5067836;28;20043;-56
2021/10/02 11:23:43;;;;;;;1.27;0.82;;;;;;;;;;5072225;28;20755;-57
2021/10/02 11:26:25;;;;;;;1.17;0.60;;;;;;;;;;5072733;28;20036;-55
2021/10/02 11:29:00;;;;;;;2.38;1.17;;;;;;;;;;5071773;28;20029;-57
2021/10/02 11:31:27;;;;;;;2.00;0.90;;;;;;;;;;5073425;28;20439;-57
2021/10/02 11:33:54;;;;;;;1.10;0.68;;;;;;;;;;5073520;28;20162;-59
2021/10/02 11:36:31;;;;;;;2.08;0.93;;;;;;;;;;5073454;28;20048;-59
2021/10/02 11:39:10;;;;;;;2.90;1.00;;;;;;;;;;5073842;28;20389;-55
2021/10/02 11:41:37;;;;;;;2.95;0.75;;;;;;;;;;5073488;28;20024;-56
2021/10/02 11:44:03;;;;;;;2.03;0.90;;;;;;;;;;5072455;28;20045;-59
2021/10/02 11:46:29;;;;;;;0.88;0.60;;;;;;;;;;5072043;28;20063;-58
2021/10/02 11:49:11;;;;;;;1.17;0.40;;;;;;;;;;5072949;28;20016;-57
2021/10/02 11:51:37;;;;;;;1.95;0.75;;;;;;;;;;5073073;28;20483;-57
2021/10/02 11:54:10;;;;;;;1.38;0.50;;;;;;;;;;5072066;28;20036;-57
2021/10/02 11:56:37;;;;;;;1.33;0.60;;;;;;;;;;5072629;28;20047;-58
2021/10/02 11:59:04;;;;;;;1.52;0.70;;;;;;;;;;5072025;28;20385;-57
2021/10/02 12:01:40;;;;;;;1.90;0.68;;;;;;;;;;5072254;28;20037;-56
2021/10/02 12:04:11;;;;;;;1.27;0.40;;;;;;;;;;5068806;28;20047;-57
2021/10/02 12:06:42;;;;;;;0.82;0.57;;;;;;;;;;5069393;28;20028;-53
2021/10/02 12:09:12;;;;;;;1.67;0.95;;;;;;;;;;5068303;28;20166;-57
2021/10/02 12:11:45;;;;;;;1.10;0.45;;;;;;;;;;5067883;28;20059;-59
2021/10/02 12:14:15;;;;;;;0.95;0.65;;;;;;;;;;5072975;28;20029;-59
2021/10/02 12:16:41;;;;;;;0.68;0.40;;;;;;;;;;5072779;28;20021;-58
2021/10/02 12:19:12;;;;;;;0.30;0.25;;;;;;;;;;5072510;28;20053;-58
2021/10/02 12:21:47;;;;;;;2.10;0.52;;;;;;;;;;5072800;28;20040;-58
2021/10/02 12:24:16;;;;;;;0.50;0.22;;;;;;;;;;5071565;28;20112;-59
2021/10/02 12:26:54;;;;;;;1.25;0.50;;;;;;;;;;5065834;28;20039;-58
2021/10/02 12:29:22;;;;;;;1.27;0.63;;;;;;;;;;5071516;28;20067;-60
2021/10/02 12:31:51;;;;;;;1.15;0.60;;;;;;;;;;5072488;28;20507;-58
2021/10/02 12:34:19;;;;;;;1.33;0.52;;;;;;;;;;5071353;28;20036;-57
2021/10/02 12:36:48;;;;;;;1.70;0.50;;;;;;;;;;5069650;28;20484;-56
2021/10/02 12:39:14;;;;;;;0.43;0.20;;;;;;;;;;5071742;28;20032;-56
2021/10/02 12:41:41;;;;;;;0.85;0.40;;;;;;;;;;5066897;28;20029;-59
2021/10/02 12:44:15;;;;;;;1.48;0.50;;;;;;;;;;5071693;28;20480;-55
2021/10/02 12:46:41;;;;;;;0.55;0.30;;;;;;;;;;5062845;28;20098;-58
2021/10/02 12:49:07;;;;;;;1.77;0.40;;;;;;;;;;5071496;28;20025;-57
2021/10/02 12:51:33;;;;;;;1.23;0.73;;;;;;;;;;5072053;28;20099;-57
2021/10/02 12:53:59;;;;;;;1.02;0.30;;;;;;;;;;5072450;28;20467;-57
2021/10/02 12:56:25;;;;;;;1.05;0.50;;;;;;;;;;5072315;28;20099;-57
2021/10/02 12:58:51;;;;;;;1.20;0.60;;;;;;;;;;5071269;28;20031;-57
2021/10/02 13:01:18;;;;;;;1.63;0.60;;;;;;;;;;5065316;28;20028;-57
2021/10/02 13:03:44;;;;;;;1.00;0.55;;;;;;;;;;5067351;28;20040;-57
2021/10/02 13:06:11;;;;;;;1.50;0.70;;;;;;;;;;5065646;28;20032;-58
2021/10/02 13:08:37;;;;;;;1.05;0.60;;;;;;;;;;5068201;28;20021;-57
2021/10/02 13:11:03;;;;;;;0.90;0.45;;;;;;;;;;5066138;28;20035;-58
2021/10/02 13:13:29;;;;;;;1.35;0.45;;;;;;;;;;5068199;28;20130;-58
2021/10/02 13:15:56;;;;;;;0.50;0.25;;;;;;;;;;5068503;28;20381;-59
2021/10/02 13:18:23;;;;;;;0.95;0.57;;;;;;;;;;5072305;28;20083;-55
2021/10/02 13:20:54;;;;;;;1.38;0.70;;;;;;;;;;5067844;28;20060;-55
2021/10/02 13:23:31;;;;;;;0.85;0.40;;;;;;;;;;5066568;28;20028;-57
2021/10/02 13:25:58;;;;;;;1.10;0.55;;;;;;;;;;5069265;28;20040;-56
2021/10/02 13:28:29;;;;;;;0.88;0.43;;;;;;;;;;5071941;28;20036;-57
2021/10/02 13:30:56;;;;;;;0.75;0.50;;;;;;;;;;5074449;28;20110;-56
2021/10/02 13:33:22;;;;;;;1.10;0.50;;;;;;;;;;5074561;28;20464;-57
2021/10/02 13:35:55;;;;;;;0.73;0.40;;;;;;;;;;5071464;28;20127;-58
2021/10/02 13:38:21;;;;;;;;;;;;;;;;;;5069823;28;20021;-58
2021/10/02 13:40:52;;;;;;;1.55;0.60;;;;;;;;;;5071650;28;20004;-54
2021/10/02 13:43:19;;;;;;;1.20;0.40;;;;;;;;;;5071102;28;20029;-57
2021/10/02 13:45:45;;;;;;;1.13;0.60;;;;;;;;;;5073840;28;20031;-59
2021/10/02 13:48:13;;;;;;;1.38;0.47;;;;;;;;;;5067954;28;20036;-59
2021/10/02 13:50:43;;;;;;;0.90;0.40;;;;;;;;;;5073499;28;20063;-59
2021/10/02 13:53:09;;;;;;;1.25;0.50;;;;;;;;;;5066266;28;20029;-58
2021/10/02 13:55:35;;;;;;;5.00;0.60;;;;;;;;;;5074903;28;20029;-57
2021/10/02 13:58:02;;;;;;;2.45;0.60;;;;;;;;;;5082348;28;20024;-57
2021/10/02 14:00:29;;;;;;;0.82;0.35;;;;;;;;;;5072424;28;20574;-57
2021/10/02 14:02:55;;;;;;;0.60;0.32;;;;;;;;;;5071376;28;20030;-58
2021/10/02 14:05:21;;;;;;;1.38;0.45;;;;;;;;;;5071594;28;20162;-58
2021/10/02 14:07:47;;;;;;;1.15;0.32;;;;;;;;;;5076636;28;20034;-58
2021/10/02 14:10:14;;;;;;;0.63;0.45;;;;;;;;;;5068955;28;20107;-57
2021/10/02 14:12:40;;;;;;;1.05;0.40;;;;;;;;;;5072939;28;20388;-56
2021/10/02 14:15:07;;;;;;;0.70;0.38;;;;;;;;;;5071679;28;20081;-56
2021/10/02 14:17:33;;;;;;;0.40;0.30;;;;;;;;;;5071708;28;20085;-59
2021/10/02 14:19:59;;;;;;;0.57;0.38;;;;;;;;;;5078700;28;20122;-57
2021/10/02 14:22:25;;;;;;;1.02;0.60;;;;;;;;;;5071439;28;20024;-58
2021/10/02 14:24:51;;;;;;;0.88;0.30;;;;;;;;;;5070946;28;20120;-57
2021/10/02 14:27:17;;;;;;;1.10;0.47;;;;;;;;;;5078145;28;20036;-57
2021/10/02 14:29:43;;;;;;;1.20;0.30;;;;;;;;;;5073630;28;20039;-56
2021/10/02 14:32:10;;;;;;;0.95;0.40;;;;;;;;;;5070813;28;20033;-58
2021/10/02 14:34:36;;;;;;;0.90;0.35;;;;;;;;;;5071265;28;20052;-57
2021/10/02 14:37:02;;;;;;;0.57;0.30;;;;;;;;;;5070937;28;20515;-57
2021/10/02 14:39:28;;;;;;;1.42;0.45;;;;;;;;;;5072145;28;20115;-59
2021/10/02 14:41:55;;;;;;;1.42;0.30;;;;;;;;;;5066200;28;20047;-58
2021/10/02 14:44:22;;;;;;;0.70;0.38;;;;;;;;;;5069908;28;20029;-57
2021/10/02 14:46:48;;;;;;;1.15;0.55;;;;;;;;;;5069501;28;20044;-58
2021/10/02 14:49:14;;;;;;;1.05;0.43;;;;;;;;;;5074166;28;20037;-59
2021/10/02 14:51:41;;;;;;;0.77;0.40;;;;;;;;;;5069556;28;20032;-57
2021/10/02 14:54:08;;;;;;;1.38;0.40;;;;;;;;;;5071648;28;20024;-59
2021/10/02 14:56:34;;;;;;;1.45;0.52;;;;;;;;;;5069113;28;20086;-55
2021/10/02 14:59:01;;;;;;;0.77;0.40;;;;;;;;;;5066833;28;20067;-58
2021/10/02 15:01:27;;;;;;;0.68;0.30;;;;;;;;;;5073996;28;20035;-57
2021/10/02 15:03:53;;;;;;;0.70;0.30;;;;;;;;;;5079356;28;20115;-58
2021/10/02 15:06:19;;;;;;;2.88;0.57;;;;;;;;;;5067859;28;20055;-57
2021/10/02 15:08:45;;;;;;;1.25;0.30;;;;;;;;;;5074012;28;20384;-55
2021/10/02 15:11:12;;;;;;;1.08;0.50;;;;;;;;;;5071913;28;20334;-56
2021/10/02 15:13:38;;;;;;;1.02;0.65;;;;;;;;;;5063746;28;20025;-57
2021/10/02 15:16:06;;;;;;;0.82;0.40;;;;;;;;;;5066268;28;20055;-56
2021/10/02 15:18:32;;;;;;;1.23;0.40;;;;;;;;;;5064166;28;20920;-56
2021/10/02 15:21:08;;;;;;;0.93;0.55;;;;;;;;;;5070095;28;20033;-57
2021/10/02 15:23:54;;;;;;;1.42;0.70;;;;;;;;;;5067309;28;20031;-59
2021/10/02 15:26:25;;;;;;;3.15;0.90;;;;;;;;;;5073700;28;20028;-57
2021/10/02 15:28:59;;;;;;;1.02;0.52;;;;;;;;;;5076200;28;20050;-57
2021/10/02 15:31:27;;;;;;;1.90;1.00;;;;;;;;;;5070867;28;20103;-59
2021/10/02 15:33:54;;;;;;;1.95;0.98;;;;;;;;;;5076543;28;20020;-59
2021/10/02 15:36:21;;;;;;;3.00;1.00;;;;;;;;;;5066047;28;20029;-56
2021/10/02 15:38:47;;;;;;;3.95;1.08;;;;;;;;;;5069279;28;20034;-59